createdAt,value
2022-10-19T00:00:31.306Z,87.52
2022-10-19T00:03:01.552Z,87.53
2022-10-19T00:05:31.786Z,87.46
2022-10-19T00:08:02.896Z,87.56
2022-10-19T00:10:33.365Z,87.53
2022-10-19T00:13:03.685Z,87.49
2022-10-19T00:15:33.915Z,87.53
2022-10-19T00:18:04.141Z,87.48
2022-10-19T00:20:34.389Z,87.42
2022-10-19T00:23:04.634Z,87.55
2022-10-19T00:25:34.861Z,87.59
2022-10-19T00:28:05.460Z,87.49
2022-10-19T00:30:39.125Z,87.49
2022-10-19T00:33:09.384Z,87.43
2022-10-19T00:35:43.902Z,87.62
2022-10-19T00:38:14.106Z,87.61
2022-10-19T00:40:44.555Z,87.50
2022-10-19T00:43:17.327Z,87.57
2022-10-19T00:45:47.567Z,87.46
2022-10-19T00:48:22.104Z,87.54
2022-10-19T00:50:54.810Z,87.52
2022-10-19T00:53:27.379Z,87.53
2022-10-19T00:55:58.416Z,87.45
2022-10-19T00:58:28.813Z,87.47
2022-10-19T01:01:00.194Z,87.45
2022-10-19T01:03:30.602Z,87.55
2022-10-19T01:06:01.788Z,87.51
2022-10-19T01:08:32.953Z,87.51
2022-10-19T01:11:14.293Z,87.55
2022-10-19T01:13:56.029Z,87.63
2022-10-19T01:16:38.710Z,87.81
2022-10-19T01:19:28.311Z,87.76
2022-10-19T01:22:11.321Z,87.84
2022-10-19T01:24:57.437Z,87.89
2022-10-19T01:27:53.562Z,87.93
2022-10-19T01:30:35.955Z,87.85
2022-10-19T01:33:28.591Z,87.83
2022-10-19T01:36:07.136Z,87.93
2022-10-19T01:38:46.205Z,87.88
2022-10-19T01:41:21.879Z,87.84
2022-10-19T01:44:01.109Z,87.90
2022-10-19T01:46:36.683Z,88.04
2022-10-19T01:49:14.799Z,88.03
2022-10-19T01:51:50.899Z,88.09
2022-10-19T01:54:23.446Z,88.13
2022-10-19T01:56:55.856Z,88.29
2022-10-19T01:59:27.288Z,88.23
2022-10-19T02:01:58.991Z,88.25
2022-10-19T02:04:29.731Z,88.36
2022-10-19T02:07:00.614Z,88.36
2022-10-19T02:09:31.224Z,88.53
2022-10-19T02:12:06.103Z,88.60
2022-10-19T02:14:39.542Z,88.59
2022-10-19T02:17:12.496Z,88.61
2022-10-19T02:19:42.887Z,88.70
2022-10-19T02:22:14.289Z,88.81
2022-10-19T02:24:44.554Z,88.88
2022-10-19T02:27:15.119Z,88.80
2022-10-19T02:29:45.773Z,88.88
2022-10-19T02:32:16.202Z,88.94
2022-10-19T02:34:48.880Z,89.08
2022-10-19T02:37:21.021Z,89.10
2022-10-19T02:39:53.684Z,89.19
2022-10-19T02:42:29.488Z,89.30
2022-10-19T02:45:02.709Z,89.25
2022-10-19T02:47:37.022Z,89.28
2022-10-19T02:50:09.962Z,89.34
2022-10-19T02:52:41.111Z,89.36
2022-10-19T02:55:11.865Z,89.48
2022-10-19T02:57:42.191Z,89.43
2022-10-19T03:00:13.950Z,89.50
2022-10-19T03:02:44.404Z,89.48
2022-10-19T03:05:17.704Z,89.56
2022-10-19T03:07:47.961Z,89.64
2022-10-19T03:10:18.571Z,89.49
2022-10-19T03:12:48.804Z,89.58
2022-10-19T03:15:20.377Z,89.53
2022-10-19T03:17:53.150Z,89.51
2022-10-19T03:20:23.416Z,89.48
2022-10-19T03:25:29.150Z,89.54
2022-10-19T03:27:59.387Z,89.62
2022-10-19T03:30:29.723Z,89.58
2022-10-19T03:33:03.149Z,89.71
2022-10-19T03:35:33.381Z,89.56
2022-10-19T03:38:03.615Z,89.56
2022-10-19T03:40:33.819Z,89.49
2022-10-19T03:43:04.146Z,89.57
2022-10-19T03:45:34.402Z,89.58
2022-10-19T03:48:04.780Z,89.62
2022-10-19T03:50:35.042Z,89.64
2022-10-19T03:53:05.290Z,89.66
2022-10-19T03:55:35.566Z,89.73
2022-10-19T03:58:06.063Z,89.74
2022-10-19T04:00:36.326Z,89.55
2022-10-19T04:03:06.789Z,89.60
2022-10-19T04:05:37.037Z,89.70
2022-10-19T04:08:07.831Z,89.69
2022-10-19T04:10:38.073Z,89.67
2022-10-19T04:13:08.311Z,89.64
2022-10-19T04:15:38.504Z,89.69
2022-10-19T04:18:08.779Z,89.67
2022-10-19T04:20:42.716Z,89.65
2022-10-19T04:23:14.014Z,89.75
2022-10-19T04:25:44.284Z,89.74
2022-10-19T04:28:14.498Z,89.70
2022-10-19T04:30:44.732Z,89.84
2022-10-19T04:33:15.021Z,89.79
2022-10-19T04:35:45.292Z,89.65
2022-10-19T04:38:15.638Z,89.76
2022-10-19T04:40:45.850Z,89.73
2022-10-19T04:43:16.070Z,89.78
2022-10-19T04:45:46.355Z,89.71
2022-10-19T04:48:16.551Z,89.84
2022-10-19T04:50:46.775Z,89.83
2022-10-19T04:53:17.855Z,89.70
2022-10-19T04:55:48.098Z,89.81
2022-10-19T04:58:18.389Z,89.69
2022-10-19T05:00:48.714Z,89.75
2022-10-19T05:03:19.305Z,89.72
2022-10-19T05:05:49.565Z,89.59
2022-10-19T05:08:20.348Z,89.60
2022-10-19T05:10:50.572Z,89.60
2022-10-19T05:13:20.823Z,89.54
2022-10-19T05:15:59.355Z,89.53
2022-10-19T05:18:29.966Z,89.41
2022-10-19T05:21:08.963Z,89.38
2022-10-19T05:23:39.852Z,89.28
2022-10-19T05:26:12.592Z,89.13
2022-10-19T05:28:42.901Z,89.10
2022-10-19T05:31:15.009Z,88.95
2022-10-19T05:33:46.182Z,88.80
2022-10-19T05:36:19.076Z,88.68
2022-10-19T05:38:51.764Z,88.62
2022-10-19T05:41:22.564Z,88.53
2022-10-19T05:43:56.796Z,88.33
2022-10-19T05:46:28.530Z,88.25
2022-10-19T05:49:00.131Z,88.10
2022-10-19T05:51:30.829Z,87.94
2022-10-19T05:54:01.186Z,87.80
2022-10-19T05:56:32.964Z,87.65
2022-10-19T05:59:05.819Z,87.61
2022-10-19T06:01:37.242Z,87.28
2022-10-19T06:04:07.730Z,87.21
2022-10-19T06:06:38.208Z,86.97
2022-10-19T06:09:08.721Z,86.94
2022-10-19T06:11:41.013Z,86.70
2022-10-19T06:14:15.810Z,86.62
2022-10-19T06:16:46.822Z,86.45
2022-10-19T06:19:17.036Z,86.36
2022-10-19T06:21:47.989Z,86.19
2022-10-19T06:24:18.211Z,86.01
2022-10-19T06:26:48.475Z,86.09
2022-10-19T06:29:19.011Z,85.94
2022-10-19T06:31:50.537Z,85.85
2022-10-19T06:34:21.232Z,85.93
2022-10-19T06:36:51.478Z,85.86
2022-10-19T06:39:21.758Z,85.61
2022-10-19T06:41:52.050Z,85.60
2022-10-19T06:44:23.604Z,85.67
2022-10-19T06:46:53.807Z,85.60
2022-10-19T06:49:24.066Z,85.59
2022-10-19T06:51:54.401Z,85.56
2022-10-19T06:54:25.604Z,85.33
2022-10-19T06:56:55.931Z,85.38
2022-10-19T06:59:26.293Z,85.32
2022-10-19T07:01:56.616Z,85.34
2022-10-19T07:04:26.904Z,85.24
2022-10-19T07:06:57.171Z,85.17
2022-10-19T07:09:27.552Z,85.18
2022-10-19T07:11:58.020Z,84.90
2022-10-19T07:14:28.504Z,84.72
2022-10-19T07:17:01.127Z,84.57
2022-10-19T07:19:32.272Z,84.38
2022-10-19T07:22:02.485Z,84.25
2022-10-19T07:24:32.761Z,84.24
2022-10-19T07:27:03.300Z,83.97
2022-10-19T07:29:33.557Z,83.71
2022-10-19T07:32:04.207Z,83.59
2022-10-19T07:34:35.993Z,83.58
2022-10-19T07:37:06.810Z,83.34
2022-10-19T07:39:37.639Z,83.07
2022-10-19T07:42:07.883Z,82.78
2022-10-19T07:44:38.152Z,82.62
2022-10-19T07:47:08.399Z,82.23
2022-10-19T07:49:38.800Z,82.13
2022-10-19T07:52:09.045Z,81.68
2022-10-19T07:54:39.314Z,81.48
2022-10-19T07:57:11.996Z,81.26
2022-10-19T07:59:42.288Z,80.92
2022-10-19T08:02:17.142Z,80.83
2022-10-19T08:05:07.455Z,80.65
2022-10-19T08:07:37.902Z,80.45
2022-10-19T08:10:09.611Z,80.21
2022-10-19T08:12:39.846Z,80.02
2022-10-19T08:15:11.130Z,79.75
2022-10-19T08:17:41.435Z,79.37
2022-10-19T08:20:12.527Z,79.00
2022-10-19T08:22:45.171Z,78.69
2022-10-19T08:25:15.700Z,78.37
2022-10-19T08:27:45.992Z,78.03
2022-10-19T08:30:16.273Z,77.82
2022-10-19T08:32:46.621Z,77.67
2022-10-19T08:35:16.933Z,77.64
2022-10-19T08:37:47.624Z,77.35
2022-10-19T08:40:23.943Z,76.96
2022-10-19T08:42:59.281Z,76.60
2022-10-19T08:48:25.992Z,76.17
2022-10-19T08:50:57.741Z,76.03
2022-10-19T08:53:38.341Z,75.76
2022-10-19T08:56:45.859Z,75.65
2022-10-19T08:59:22.717Z,75.44
2022-10-19T09:01:55.978Z,74.94
2022-10-19T09:04:29.171Z,74.53
2022-10-19T09:07:21.544Z,74.52
2022-10-19T09:09:55.886Z,74.05
2022-10-19T09:12:38.412Z,73.70
2022-10-19T09:15:12.653Z,73.64
2022-10-19T09:17:43.070Z,73.76
2022-10-19T09:20:23.722Z,73.46
2022-10-19T09:23:03.964Z,72.99
2022-10-19T09:25:39.266Z,72.60
2022-10-19T09:28:33.953Z,72.19
2022-10-19T09:31:12.867Z,71.82
2022-10-19T09:33:46.306Z,71.58
2022-10-19T09:36:22.928Z,71.37
2022-10-19T09:38:58.361Z,71.25
2022-10-19T09:41:29.196Z,70.95
2022-10-19T09:44:00.309Z,70.76
2022-10-19T09:46:38.637Z,70.78
2022-10-19T09:49:09.176Z,70.56
2022-10-19T09:51:50.712Z,70.31
2022-10-19T09:54:33.165Z,70.11
2022-10-19T09:57:04.528Z,69.86
2022-10-19T09:59:37.742Z,69.72
2022-10-19T10:02:22.576Z,69.55
2022-10-19T10:05:04.534Z,69.42
2022-10-19T10:07:39.106Z,69.27
2022-10-19T10:10:30.410Z,68.88
2022-10-19T10:13:02.701Z,68.74
2022-10-19T10:15:43.148Z,68.51
2022-10-19T10:18:16.985Z,68.32
2022-10-19T10:21:03.875Z,68.04
2022-10-19T10:23:37.665Z,67.85
2022-10-19T10:26:18.885Z,67.63
2022-10-19T10:28:53.907Z,67.63
2022-10-19T10:31:33.290Z,67.51
2022-10-19T10:34:16.319Z,67.34
2022-10-19T10:36:56.386Z,67.18
2022-10-19T10:39:28.775Z,67.11
2022-10-19T10:42:04.106Z,67.22
2022-10-19T10:44:36.877Z,67.21
2022-10-19T10:47:14.369Z,66.95
2022-10-19T10:49:46.558Z,66.82
2022-10-19T10:52:19.591Z,66.42
2022-10-19T10:55:02.364Z,66.61
2022-10-19T10:57:37.573Z,66.54
2022-10-19T11:00:13.988Z,66.44
2022-10-19T11:02:50.463Z,66.37
2022-10-19T11:05:25.165Z,66.31
2022-10-19T11:08:02.094Z,66.05
2022-10-19T11:10:36.152Z,65.91
2022-10-19T11:13:15.133Z,65.78
2022-10-19T11:15:53.387Z,65.65
2022-10-19T11:18:26.726Z,65.85
2022-10-19T11:21:05.518Z,66.00
2022-10-19T11:23:54.531Z,65.71
2022-10-19T11:26:39.907Z,65.64
2022-10-19T11:29:30.303Z,64.78
2022-10-19T11:32:00.602Z,64.27
2022-10-19T11:34:47.172Z,63.81
2022-10-19T11:37:26.943Z,63.68
2022-10-19T11:40:10.222Z,64.00
2022-10-19T11:42:54.360Z,64.20
2022-10-19T11:45:35.280Z,64.45
2022-10-19T11:48:22.986Z,64.47
2022-10-19T11:51:16.970Z,64.57
2022-10-19T11:54:09.933Z,64.50
2022-10-19T11:57:03.207Z,64.50
2022-10-19T11:59:47.610Z,64.59
2022-10-19T12:02:40.973Z,64.58
2022-10-19T12:05:17.179Z,64.65
2022-10-19T12:08:02.912Z,64.69
2022-10-19T12:10:41.197Z,64.82
2022-10-19T12:13:16.970Z,64.75
2022-10-19T12:15:50.259Z,64.75
2022-10-19T12:18:25.922Z,64.78
2022-10-19T12:21:00.040Z,64.89
2022-10-19T12:23:36.232Z,64.94
2022-10-19T12:26:09.620Z,64.98
2022-10-19T12:28:43.382Z,65.05
2022-10-19T12:31:14.258Z,65.21
2022-10-19T12:33:50.531Z,65.30
2022-10-19T12:36:33.821Z,65.46
2022-10-19T12:39:12.349Z,65.71
2022-10-19T12:41:52.584Z,65.92
2022-10-19T12:44:54.941Z,66.15
2022-10-19T12:47:28.149Z,66.25
2022-10-19T12:49:59.809Z,66.42
2022-10-19T12:52:45.760Z,66.44
2022-10-19T12:55:28.151Z,66.61
2022-10-19T12:58:05.084Z,66.72
2022-10-19T13:00:34.933Z,66.50
2022-10-19T13:03:08.684Z,66.37
2022-10-19T13:05:39.970Z,66.44
2022-10-19T13:08:13.773Z,66.47
2022-10-19T13:11:05.603Z,66.60
2022-10-19T13:13:57.338Z,66.55
2022-10-19T13:16:59.981Z,66.81
2022-10-19T13:19:30.717Z,66.76
2022-10-19T13:22:28.113Z,66.86
2022-10-19T13:25:28.091Z,66.93
2022-10-19T13:28:02.576Z,67.13
2022-10-19T13:31:06.168Z,67.11
2022-10-19T13:33:54.024Z,67.27
2022-10-19T13:36:26.071Z,67.50
2022-10-19T13:39:12.804Z,67.42
2022-10-19T13:41:53.842Z,67.32
2022-10-19T13:44:28.790Z,67.36
2022-10-19T13:47:18.743Z,67.33
2022-10-19T13:50:08.839Z,67.52
2022-10-19T13:53:01.710Z,67.56
2022-10-19T13:55:49.361Z,67.67
2022-10-19T13:58:41.385Z,67.71
2022-10-19T14:01:24.887Z,67.79
2022-10-19T14:04:14.884Z,67.89
2022-10-19T14:06:48.828Z,67.98
2022-10-19T14:09:45.327Z,67.99
2022-10-19T14:12:23.498Z,68.07
2022-10-19T14:14:54.301Z,68.11
2022-10-19T14:17:27.985Z,68.13
2022-10-19T14:19:59.983Z,68.11
2022-10-19T14:22:33.731Z,68.09
2022-10-19T14:25:17.311Z,68.24
2022-10-19T14:27:49.084Z,68.22
2022-10-19T14:30:26.537Z,68.35
2022-10-19T14:33:01.138Z,68.46
2022-10-19T14:35:37.512Z,68.56
2022-10-19T14:38:09.311Z,68.67
2022-10-19T14:40:43.118Z,68.63
2022-10-19T14:43:23.458Z,68.78
2022-10-19T14:46:17.049Z,68.71
2022-10-19T14:48:48.694Z,68.74
2022-10-19T14:51:29.540Z,68.76
2022-10-19T14:54:05.592Z,68.94
2022-10-19T14:56:41.138Z,68.80
2022-10-19T14:59:27.819Z,68.81
2022-10-19T15:02:00.342Z,68.94
2022-10-19T15:04:35.276Z,68.94
2022-10-19T15:07:15.337Z,68.83
2022-10-19T15:09:53.215Z,68.83
2022-10-19T15:12:27.405Z,68.84
2022-10-19T15:14:59.088Z,68.97
2022-10-19T15:17:32.301Z,69.03
2022-10-19T15:20:04.466Z,69.22
2022-10-19T15:22:42.104Z,69.10
2022-10-19T15:25:37.114Z,69.13
2022-10-19T15:28:34.870Z,69.36
2022-10-19T15:31:17.070Z,69.48
2022-10-19T15:33:50.725Z,69.56
2022-10-19T15:36:23.402Z,69.56
2022-10-19T15:39:17.618Z,69.63
2022-10-19T15:41:54.119Z,69.76
2022-10-19T15:44:41.748Z,69.81
2022-10-19T15:47:26.901Z,69.96
2022-10-19T15:50:02.709Z,70.05
2022-10-19T15:52:34.950Z,70.06
2022-10-19T15:55:05.579Z,70.11
2022-10-19T15:57:38.242Z,70.25
2022-10-19T16:00:15.673Z,70.29
2022-10-19T16:02:44.543Z,70.29
2022-10-19T16:05:14.971Z,70.44
2022-10-19T16:07:45.208Z,70.55
2022-10-19T16:10:20.868Z,70.49
2022-10-19T16:12:51.144Z,70.61
2022-10-19T16:15:23.475Z,70.62
2022-10-19T16:17:55.971Z,70.73
2022-10-19T16:20:28.180Z,70.90
2022-10-19T16:22:58.899Z,70.97
2022-10-19T16:25:29.246Z,71.02
2022-10-19T16:27:59.621Z,71.14
2022-10-19T16:30:29.891Z,71.20
2022-10-19T16:33:00.141Z,71.46
2022-10-19T16:35:30.552Z,71.45
2022-10-19T16:38:00.859Z,71.59
2022-10-19T16:40:31.541Z,71.55
2022-10-19T16:43:01.819Z,71.76
2022-10-19T16:45:32.400Z,71.76
2022-10-19T16:48:02.803Z,71.88
2022-10-19T16:50:33.117Z,71.93
2022-10-19T16:53:10.215Z,72.11
2022-10-19T16:55:39.691Z,72.06
2022-10-19T16:58:09.936Z,72.17
2022-10-19T17:00:40.888Z,72.18
2022-10-19T17:03:11.158Z,72.21
2022-10-19T17:05:41.568Z,72.24
2022-10-19T17:08:11.856Z,72.42
2022-10-19T17:10:42.178Z,72.51
2022-10-19T17:13:12.411Z,72.89
2022-10-19T17:15:43.549Z,73.19
2022-10-19T17:18:14.033Z,73.50
2022-10-19T17:20:44.277Z,73.50
2022-10-19T17:23:14.528Z,73.64
2022-10-19T17:25:50.125Z,73.89
2022-10-19T17:28:22.920Z,73.93
2022-10-19T17:30:57.789Z,74.22
2022-10-19T17:33:29.175Z,74.16
2022-10-19T17:36:05.444Z,74.29
2022-10-19T17:38:36.516Z,74.53
2022-10-19T17:41:12.534Z,74.57
2022-10-19T17:43:44.458Z,74.59
2022-10-19T17:46:17.109Z,74.53
2022-10-19T17:48:47.572Z,74.58
2022-10-19T17:51:19.393Z,74.64
2022-10-19T17:53:51.089Z,74.76
2022-10-19T17:56:22.774Z,74.72
2022-10-19T17:58:53.615Z,74.91
2022-10-19T18:01:25.092Z,74.77
2022-10-19T18:03:55.781Z,74.87
2022-10-19T18:06:27.712Z,75.07
2022-10-19T18:08:59.993Z,75.04
2022-10-19T18:11:31.649Z,75.05
2022-10-19T18:14:03.145Z,75.02
2022-10-19T18:16:35.811Z,75.02
2022-10-19T18:19:08.459Z,75.19
2022-10-19T18:21:41.539Z,75.20
2022-10-19T18:24:19.152Z,75.31
2022-10-19T18:26:50.137Z,75.37
2022-10-19T18:29:22.447Z,75.34
2022-10-19T18:31:53.345Z,75.55
2022-10-19T18:34:26.010Z,75.58
2022-10-19T18:36:56.599Z,75.59
2022-10-19T18:39:26.986Z,75.59
2022-10-19T18:41:57.310Z,75.63
2022-10-19T18:44:33.495Z,75.71
2022-10-19T18:47:04.412Z,75.69
2022-10-19T18:49:35.168Z,75.77
2022-10-19T18:52:05.636Z,75.95
2022-10-19T18:54:36.169Z,75.95
2022-10-19T18:57:06.422Z,75.97
2022-10-19T18:59:37.251Z,76.31
2022-10-19T19:02:13.628Z,76.23
2022-10-19T19:04:53.015Z,76.21
2022-10-19T19:07:23.471Z,76.50
2022-10-19T19:10:01.156Z,76.44
2022-10-19T19:12:32.088Z,76.31
2022-10-19T19:15:02.539Z,76.01
2022-10-19T19:17:32.804Z,75.97
2022-10-19T19:20:03.636Z,75.75
2022-10-19T19:22:34.328Z,75.88
2022-10-19T19:25:07.834Z,75.98
2022-10-19T19:30:10.558Z,76.23
2022-10-19T19:32:41.297Z,76.25
2022-10-19T19:35:12.041Z,76.40
2022-10-19T19:37:42.332Z,76.00
2022-10-19T19:40:13.424Z,76.14
2022-10-19T19:42:43.813Z,76.02
2022-10-19T19:45:14.157Z,75.89
2022-10-19T19:47:44.626Z,75.98
2022-10-19T19:50:15.116Z,76.08
2022-10-19T19:52:45.361Z,75.77
2022-10-19T19:55:15.808Z,75.65
2022-10-19T19:57:49.841Z,75.69
2022-10-19T20:00:20.572Z,75.71
2022-10-19T20:02:54.727Z,75.68
2022-10-19T20:05:25.871Z,75.65
2022-10-19T20:07:56.276Z,75.35
2022-10-19T20:10:26.884Z,75.38
2022-10-19T20:12:57.269Z,75.55
2022-10-19T20:15:27.610Z,75.75
2022-10-19T20:17:57.859Z,75.72
2022-10-19T20:20:28.123Z,75.92
2022-10-19T20:22:58.591Z,75.75
2022-10-19T20:25:29.015Z,75.74
2022-10-19T20:27:59.234Z,75.62
2022-10-19T20:30:31.621Z,75.57
2022-10-19T20:33:01.873Z,75.58
2022-10-19T20:35:32.114Z,75.67
2022-10-19T20:38:03.825Z,75.80
2022-10-19T20:40:33.963Z,75.69
2022-10-19T20:43:04.267Z,75.84
2022-10-19T20:45:34.495Z,75.73
2022-10-19T20:48:07.170Z,75.71
2022-10-19T20:50:37.616Z,75.84
2022-10-19T20:53:09.271Z,75.87
2022-10-19T20:55:39.807Z,75.76
2022-10-19T20:58:10.030Z,75.96
2022-10-19T21:00:40.263Z,76.10
2022-10-19T21:03:10.829Z,76.22
2022-10-19T21:05:41.401Z,76.29
2022-10-19T21:08:15.309Z,76.31
2022-10-19T21:10:45.572Z,76.39
2022-10-19T21:13:15.831Z,76.38
2022-10-19T21:15:46.040Z,76.56
2022-10-19T21:18:16.304Z,76.19
2022-10-19T21:20:46.653Z,76.18
2022-10-19T21:23:18.913Z,75.87
2022-10-19T21:26:05.527Z,75.65
2022-10-19T21:28:35.911Z,75.81
2022-10-19T21:31:07.687Z,75.71
2022-10-19T21:33:41.239Z,75.89
2022-10-19T21:36:12.842Z,75.78
2022-10-19T21:38:43.689Z,75.84
2022-10-19T21:41:16.434Z,75.87
2022-10-19T21:43:46.923Z,76.04
2022-10-19T21:46:19.060Z,76.24
2022-10-19T21:48:49.626Z,76.31
2022-10-19T21:51:34.457Z,76.62
2022-10-19T21:54:06.102Z,76.81
2022-10-19T21:56:37.655Z,77.20
2022-10-19T21:59:07.943Z,77.20
2022-10-19T22:01:41.062Z,77.42
2022-10-19T22:04:14.843Z,77.36
2022-10-19T22:06:45.499Z,77.41
2022-10-19T22:09:17.811Z,77.53
2022-10-19T22:11:48.399Z,77.71
2022-10-19T22:14:18.967Z,77.83
2022-10-19T22:16:49.611Z,78.04
2022-10-19T22:19:20.252Z,78.24
2022-10-19T22:21:50.531Z,78.47
2022-10-19T22:24:21.885Z,78.37
2022-10-19T22:26:52.101Z,78.53
2022-10-19T22:29:22.364Z,78.71
2022-10-19T22:31:52.561Z,78.60
2022-10-19T22:34:23.050Z,78.96
2022-10-19T22:36:53.324Z,78.90
2022-10-19T22:39:26.956Z,79.18
2022-10-19T22:41:58.263Z,79.25
2022-10-19T22:44:28.581Z,79.41
2022-10-19T22:46:59.449Z,79.75
2022-10-19T22:49:29.739Z,79.98
2022-10-19T22:51:59.917Z,80.08
2022-10-19T22:54:30.137Z,80.22
2022-10-19T22:57:00.362Z,80.04
2022-10-19T22:59:30.546Z,80.19
2022-10-19T23:02:00.936Z,80.08
2022-10-19T23:04:31.221Z,80.26
2022-10-19T23:07:01.551Z,80.18
2022-10-19T23:09:31.914Z,80.25
2022-10-19T23:12:02.109Z,80.38
2022-10-19T23:14:32.525Z,80.35
2022-10-19T23:17:02.702Z,80.21
2022-10-19T23:19:32.897Z,80.24
2022-10-19T23:22:03.129Z,80.60
2022-10-19T23:24:33.477Z,80.16
2022-10-19T23:27:03.729Z,80.44
2022-10-19T23:29:34.012Z,80.48
2022-10-19T23:32:04.224Z,80.35
2022-10-19T23:37:05.985Z,80.60
2022-10-19T23:39:36.557Z,80.60
2022-10-19T23:42:07.076Z,80.50
2022-10-19T23:44:37.385Z,80.70
2022-10-19T23:47:07.597Z,80.36
2022-10-19T23:49:37.826Z,80.40
2022-10-19T23:52:09.168Z,80.16
2022-10-19T23:54:45.355Z,79.94
2022-10-19T23:57:15.646Z,79.71
2022-10-19T23:59:45.823Z,79.43
